createdAt,value
2017-10-23T18:36:15.451Z,101115.16
2017-10-23T18:38:42.852Z,101114.25
2017-10-23T18:41:10.240Z,101119.70
2017-10-23T18:43:37.639Z,101117.04
2017-10-23T18:46:05.032Z,101127.80
2017-10-23T18:48:32.453Z,101133.83
2017-10-23T18:50:59.848Z,101142.48
2017-10-23T18:53:27.347Z,101140.35
2017-10-23T18:55:54.750Z,101142.87
2017-10-23T18:58:22.150Z,101152.64
2017-10-23T19:00:49.573Z,101151.59
2017-10-23T19:03:16.959Z,101149.81
2017-10-23T19:05:44.381Z,101156.13
2017-10-23T19:08:11.830Z,101158.84
2017-10-23T19:10:39.246Z,101157.73
2017-10-23T19:13:06.742Z,101154.63
2017-10-23T19:15:34.147Z,101159.91
2017-10-23T19:18:01.538Z,101166.43
2017-10-23T19:20:28.947Z,101164.98
2017-10-23T19:22:56.774Z,101170.02
2017-10-23T19:25:24.175Z,101167.20
2017-10-23T19:27:51.586Z,101168.98
2017-10-23T19:30:18.992Z,101173.71
2017-10-23T19:32:46.394Z,101177.78
2017-10-23T19:35:13.862Z,101177.19
2017-10-23T19:37:41.324Z,101182.82
2017-10-23T19:40:08.928Z,101180.38
2017-10-23T19:42:36.334Z,101189.06
2017-10-23T19:45:03.910Z,101193.21
2017-10-23T19:47:31.447Z,101185.61
2017-10-23T19:49:58.907Z,101193.51
2017-10-23T19:52:26.366Z,101198.16
2017-10-23T19:54:53.774Z,101200.47
2017-10-23T19:57:21.292Z,101199.73
2017-10-23T19:59:48.790Z,101207.56
2017-10-23T20:02:16.204Z,101212.14
2017-10-23T20:04:43.591Z,101209.53
2017-10-23T20:07:10.995Z,101217.24
2017-10-23T20:09:38.406Z,101220.42
2017-10-23T20:12:05.948Z,101225.53
2017-10-23T20:14:33.490Z,101226.75
2017-10-23T20:17:00.926Z,101231.05
2017-10-23T20:19:28.408Z,101231.36
2017-10-23T20:21:55.803Z,101240.00
2017-10-23T20:24:23.238Z,101243.87
2017-10-23T20:26:50.690Z,101248.47
2017-10-23T20:29:18.082Z,101249.20
2017-10-23T20:31:45.483Z,101249.66
2017-10-23T20:34:12.981Z,101253.11
2017-10-23T20:36:40.513Z,101261.56
2017-10-23T20:39:08.052Z,101261.42
2017-10-23T20:41:35.460Z,101262.11
2017-10-23T20:44:02.999Z,101259.88
2017-10-23T20:46:30.511Z,101267.64
2017-10-23T20:48:57.896Z,101269.56
2017-10-23T20:51:25.283Z,101275.18
2017-10-23T20:53:52.797Z,101280.41
2017-10-23T20:56:20.275Z,101280.02
2017-10-23T20:58:47.822Z,101283.80
2017-10-23T21:01:15.271Z,101288.75
2017-10-23T21:03:42.739Z,101292.52
2017-10-23T21:06:10.133Z,101293.66
2017-10-23T21:08:37.535Z,101293.22
2017-10-23T21:11:05.006Z,101295.30
2017-10-23T21:13:32.399Z,101300.67
2017-10-23T21:15:59.798Z,101300.93
2017-10-23T21:18:27.276Z,101303.50
2017-10-23T21:20:54.670Z,101301.91
2017-10-23T21:23:22.087Z,101299.41
2017-10-23T21:25:49.540Z,101294.91
2017-10-23T21:28:16.939Z,101294.27
2017-10-23T21:30:44.348Z,101292.78
2017-10-23T21:33:11.759Z,101299.17
2017-10-23T21:35:39.268Z,101301.66
2017-10-23T21:38:06.719Z,101306.84
2017-10-23T21:40:34.111Z,101302.38
2017-10-23T21:43:01.593Z,101298.01
2017-10-23T21:45:28.969Z,101298.07
2017-10-23T21:48:11.990Z,101304.08
2017-10-23T21:50:39.375Z,101315.92
2017-10-23T21:53:06.867Z,101320.22
2017-10-23T21:55:34.323Z,101329.99
2017-10-23T21:58:01.795Z,101334.08
2017-10-23T22:00:29.174Z,101332.89
2017-10-23T22:02:56.564Z,101340.53
2017-10-23T22:05:24.055Z,101344.90
2017-10-23T22:07:51.439Z,101347.58
2017-10-23T22:10:18.831Z,101347.73
2017-10-23T22:12:46.231Z,101346.91
2017-10-23T22:15:13.625Z,101354.53
2017-10-23T22:17:41.015Z,101358.17
2017-10-23T22:20:08.480Z,101361.81
2017-10-23T22:22:35.935Z,101362.02
2017-10-23T22:25:03.330Z,101359.42
2017-10-23T22:27:30.818Z,101356.88
2017-10-23T22:29:58.278Z,101355.95
2017-10-23T22:32:25.671Z,101359.76
2017-10-23T22:34:53.068Z,101360.83
2017-10-23T22:37:20.463Z,101363.28
2017-10-23T22:39:47.890Z,101365.70
2017-10-23T22:42:15.282Z,101360.52
2017-10-23T22:44:42.691Z,101362.50
2017-10-23T22:47:10.084Z,101363.88
2017-10-23T22:49:37.499Z,101370.69
2017-10-23T22:52:04.894Z,101372.52
2017-10-23T22:54:32.338Z,101373.17
2017-10-23T22:56:59.734Z,101366.31
2017-10-23T22:59:27.139Z,101367.72
2017-10-23T23:01:54.548Z,101371.91
2017-10-23T23:04:21.954Z,101371.11
2017-10-23T23:06:49.354Z,101369.58
2017-10-23T23:09:16.751Z,101369.84
2017-10-23T23:11:44.159Z,101376.05
2017-10-23T23:14:11.552Z,101380.80
2017-10-23T23:16:39.008Z,101378.59
2017-10-23T23:19:06.488Z,101380.11
2017-10-23T23:21:33.932Z,101387.98
2017-10-23T23:24:01.341Z,101393.47
2017-10-23T23:26:28.738Z,101391.37
2017-10-23T23:28:56.214Z,101399.72
2017-10-23T23:31:23.629Z,101396.22
2017-10-23T23:33:51.031Z,101403.51
2017-10-23T23:36:18.478Z,101408.17
2017-10-23T23:38:45.878Z,101407.55
2017-10-23T23:41:13.270Z,101400.89
2017-10-23T23:43:40.667Z,101408.10
2017-10-23T23:46:08.070Z,101401.61
2017-10-23T23:48:35.554Z,101410.73
2017-10-23T23:51:03.031Z,101410.81
2017-10-23T23:53:30.474Z,101414.51
2017-10-23T23:55:57.931Z,101411.99
2017-10-23T23:58:25.334Z,101418.63
